sensor_id;sensor_type;location;lat;lon;timestamp;pressure;altitude;pressure_sealevel;temperature
70533;BMP180;58088;51.186;17.130;2022-10-16T00:01:38;100222.60;;;15.20
70533;BMP180;58088;51.186;17.130;2022-10-16T00:04:05;100222.40;;;15.10
70533;BMP180;58088;51.186;17.130;2022-10-16T00:06:31;100223.20;;;15.10
70533;BMP180;58088;51.186;17.130;2022-10-16T00:08:58;100224.60;;;15.00
70533;BMP180;58088;51.186;17.130;2022-10-16T00:11:33;100221.20;;;15.00
70533;BMP180;58088;51.186;17.130;2022-10-16T00:14:08;100224.20;;;15.00
70533;BMP180;58088;51.186;17.130;2022-10-16T00:16:34;100228.00;;;15.00
70533;BMP180;58088;51.186;17.130;2022-10-16T00:19:01;100229.80;;;15.10
70533;BMP180;58088;51.186;17.130;2022-10-16T00:21:30;100229.00;;;15.02
70533;BMP180;58088;51.186;17.130;2022-10-16T00:24:07;100230.80;;;15.00
70533;BMP180;58088;51.186;17.130;2022-10-16T00:26:36;100228.60;;;15.00
70533;BMP180;58088;51.186;17.130;2022-10-16T00:29:05;100231.00;;;15.00
70533;BMP180;58088;51.186;17.130;2022-10-16T00:31:31;100233.00;;;15.00
70533;BMP180;58088;51.186;17.130;2022-10-16T00:33:58;100232.60;;;14.90
70533;BMP180;58088;51.186;17.130;2022-10-16T00:36:26;100232.00;;;14.90
70533;BMP180;58088;51.186;17.130;2022-10-16T00:38:57;100225.00;;;14.90
70533;BMP180;58088;51.186;17.130;2022-10-16T00:41:26;100226.80;;;14.90
70533;BMP180;58088;51.186;17.130;2022-10-16T00:43:58;100231.60;;;14.90
70533;BMP180;58088;51.186;17.130;2022-10-16T00:46:40;100228.80;;;14.90
70533;BMP180;58088;51.186;17.130;2022-10-16T00:49:16;100227.40;;;14.80
70533;BMP180;58088;51.186;17.130;2022-10-16T00:51:49;100227.80;;;14.80
70533;BMP180;58088;51.186;17.130;2022-10-16T00:54:31;100228.00;;;14.80
70533;BMP180;58088;51.186;17.130;2022-10-16T00:57:05;100219.20;;;14.80
70533;BMP180;58088;51.186;17.130;2022-10-16T00:59:40;100219.40;;;14.88
70533;BMP180;58088;51.186;17.130;2022-10-16T01:02:14;100216.00;;;14.80
70533;BMP180;58088;51.186;17.130;2022-10-16T01:04:52;100222.40;;;14.80
70533;BMP180;58088;51.186;17.130;2022-10-16T01:11:07;100219.40;;;14.80
70533;BMP180;58088;51.186;17.130;2022-10-16T01:13:44;100221.60;;;14.80
70533;BMP180;58088;51.186;17.130;2022-10-16T01:16:36;100225.20;;;14.80
70533;BMP180;58088;51.186;17.130;2022-10-16T01:21:54;100222.60;;;14.80
70533;BMP180;58088;51.186;17.130;2022-10-16T01:33:10;100235.00;;;14.80
70533;BMP180;58088;51.186;17.130;2022-10-16T01:35:45;100240.00;;;14.80
70533;BMP180;58088;51.186;17.130;2022-10-16T01:41:07;100229.00;;;14.90
70533;BMP180;58088;51.186;17.130;2022-10-16T01:43:43;100226.80;;;14.90
70533;BMP180;58088;51.186;17.130;2022-10-16T01:46:14;100229.60;;;14.90
70533;BMP180;58088;51.186;17.130;2022-10-16T01:48:42;100224.00;;;14.90
70533;BMP180;58088;51.186;17.130;2022-10-16T01:51:13;100229.40;;;14.88
70533;BMP180;58088;51.186;17.130;2022-10-16T01:53:44;100225.60;;;14.88
70533;BMP180;58088;51.186;17.130;2022-10-16T01:56:13;100234.80;;;14.80
70533;BMP180;58088;51.186;17.130;2022-10-16T01:59:06;100232.40;;;14.90
70533;BMP180;58088;51.186;17.130;2022-10-16T02:02:22;100233.00;;;14.90
70533;BMP180;58088;51.186;17.130;2022-10-16T02:05:26;100236.20;;;14.90
70533;BMP180;58088;51.186;17.130;2022-10-16T02:07:54;100245.00;;;14.90
70533;BMP180;58088;51.186;17.130;2022-10-16T02:10:22;100240.60;;;14.90
70533;BMP180;58088;51.186;17.130;2022-10-16T02:13:09;100243.40;;;14.90
70533;BMP180;58088;51.186;17.130;2022-10-16T02:15:36;100244.60;;;15.00
70533;BMP180;58088;51.186;17.130;2022-10-16T02:18:06;100242.40;;;15.00
70533;BMP180;58088;51.186;17.130;2022-10-16T02:20:45;100251.20;;;15.00
70533;BMP180;58088;51.186;17.130;2022-10-16T02:23:22;100249.20;;;15.00
70533;BMP180;58088;51.186;17.130;2022-10-16T02:25:50;100250.60;;;15.00
70533;BMP180;58088;51.186;17.130;2022-10-16T02:28:33;100253.00;;;15.10
70533;BMP180;58088;51.186;17.130;2022-10-16T02:31:07;100249.00;;;15.10
70533;BMP180;58088;51.186;17.130;2022-10-16T02:33:35;100253.60;;;15.10
70533;BMP180;58088;51.186;17.130;2022-10-16T02:36:03;100259.80;;;15.10
70533;BMP180;58088;51.186;17.130;2022-10-16T02:38:30;100259.40;;;15.18
70533;BMP180;58088;51.186;17.130;2022-10-16T02:40:56;100266.40;;;15.20
70533;BMP180;58088;51.186;17.130;2022-10-16T02:43:24;100268.00;;;15.20
70533;BMP180;58088;51.186;17.130;2022-10-16T02:45:51;100272.00;;;15.20
70533;BMP180;58088;51.186;17.130;2022-10-16T02:48:18;100267.40;;;15.20
70533;BMP180;58088;51.186;17.130;2022-10-16T02:50:44;100264.00;;;15.20
70533;BMP180;58088;51.186;17.130;2022-10-16T02:53:10;100259.40;;;15.20
70533;BMP180;58088;51.186;17.130;2022-10-16T02:55:36;100261.20;;;15.20
70533;BMP180;58088;51.186;17.130;2022-10-16T02:58:03;100261.40;;;15.20
70533;BMP180;58088;51.186;17.130;2022-10-16T03:00:29;100268.00;;;15.12
70533;BMP180;58088;51.186;17.130;2022-10-16T03:02:55;100274.00;;;15.10
70533;BMP180;58088;51.186;17.130;2022-10-16T03:05:21;100275.80;;;15.10
70533;BMP180;58088;51.186;17.130;2022-10-16T03:07:47;100268.00;;;15.10
70533;BMP180;58088;51.186;17.130;2022-10-16T03:10:14;100268.60;;;15.10
70533;BMP180;58088;51.186;17.130;2022-10-16T03:12:40;100267.20;;;15.10
70533;BMP180;58088;51.186;17.130;2022-10-16T03:15:07;100270.20;;;15.08
70533;BMP180;58088;51.186;17.130;2022-10-16T03:17:34;100282.00;;;15.10
70533;BMP180;58088;51.186;17.130;2022-10-16T03:20:00;100281.80;;;15.10
70533;BMP180;58088;51.186;17.130;2022-10-16T03:22:27;100279.00;;;15.02
70533;BMP180;58088;51.186;17.130;2022-10-16T03:24:53;100285.80;;;15.00
70533;BMP180;58088;51.186;17.130;2022-10-16T03:27:19;100281.60;;;15.00
70533;BMP180;58088;51.186;17.130;2022-10-16T03:29:45;100287.60;;;15.00
70533;BMP180;58088;51.186;17.130;2022-10-16T03:32:11;100281.00;;;15.00
70533;BMP180;58088;51.186;17.130;2022-10-16T03:34:38;100271.40;;;15.00
70533;BMP180;58088;51.186;17.130;2022-10-16T03:37:04;100274.60;;;14.90
70533;BMP180;58088;51.186;17.130;2022-10-16T03:39:30;100278.20;;;14.90
70533;BMP180;58088;51.186;17.130;2022-10-16T03:41:56;100276.00;;;14.90
70533;BMP180;58088;51.186;17.130;2022-10-16T03:44:23;100284.20;;;14.90
70533;BMP180;58088;51.186;17.130;2022-10-16T03:46:49;100288.20;;;14.90
70533;BMP180;58088;51.186;17.130;2022-10-16T03:49:15;100294.80;;;14.90
70533;BMP180;58088;51.186;17.130;2022-10-16T03:51:41;100296.60;;;15.00
70533;BMP180;58088;51.186;17.130;2022-10-16T03:54:09;100291.40;;;15.00
70533;BMP180;58088;51.186;17.130;2022-10-16T03:56:35;100301.20;;;15.00
70533;BMP180;58088;51.186;17.130;2022-10-16T03:59:02;100292.60;;;15.00
70533;BMP180;58088;51.186;17.130;2022-10-16T04:01:28;100295.00;;;15.00
70533;BMP180;58088;51.186;17.130;2022-10-16T04:03:54;100296.80;;;15.00
70533;BMP180;58088;51.186;17.130;2022-10-16T04:06:20;100299.00;;;15.00
70533;BMP180;58088;51.186;17.130;2022-10-16T04:08:46;100303.60;;;15.10
70533;BMP180;58088;51.186;17.130;2022-10-16T04:11:13;100302.00;;;15.10
70533;BMP180;58088;51.186;17.130;2022-10-16T04:13:39;100306.40;;;15.10
70533;BMP180;58088;51.186;17.130;2022-10-16T04:16:05;100302.40;;;15.10
70533;BMP180;58088;51.186;17.130;2022-10-16T04:18:31;100305.40;;;15.16
70533;BMP180;58088;51.186;17.130;2022-10-16T04:21:03;100307.40;;;15.20
70533;BMP180;58088;51.186;17.130;2022-10-16T04:23:30;100310.80;;;15.20
70533;BMP180;58088;51.186;17.130;2022-10-16T04:25:56;100309.00;;;15.20
70533;BMP180;58088;51.186;17.130;2022-10-16T04:28:22;100301.80;;;15.20
70533;BMP180;58088;51.186;17.130;2022-10-16T04:30:49;100303.60;;;15.20
70533;BMP180;58088;51.186;17.130;2022-10-16T04:33:15;100304.80;;;15.20
70533;BMP180;58088;51.186;17.130;2022-10-16T04:35:41;100305.40;;;15.20
70533;BMP180;58088;51.186;17.130;2022-10-16T04:38:07;100309.20;;;15.20
70533;BMP180;58088;51.186;17.130;2022-10-16T04:40:34;100312.60;;;15.18
70533;BMP180;58088;51.186;17.130;2022-10-16T04:43:04;100317.20;;;15.20
70533;BMP180;58088;51.186;17.130;2022-10-16T04:45:31;100320.20;;;15.20
70533;BMP180;58088;51.186;17.130;2022-10-16T04:47:58;100320.40;;;15.20
70533;BMP180;58088;51.186;17.130;2022-10-16T04:50:25;100315.20;;;15.14
70533;BMP180;58088;51.186;17.130;2022-10-16T04:53:05;100315.00;;;15.20
70533;BMP180;58088;51.186;17.130;2022-10-16T04:55:32;100311.80;;;15.20
70533;BMP180;58088;51.186;17.130;2022-10-16T04:57:58;100316.20;;;15.16
70533;BMP180;58088;51.186;17.130;2022-10-16T05:00:24;100324.00;;;15.10
70533;BMP180;58088;51.186;17.130;2022-10-16T05:02:51;100328.20;;;15.12
70533;BMP180;58088;51.186;17.130;2022-10-16T05:05:17;100328.80;;;15.20
70533;BMP180;58088;51.186;17.130;2022-10-16T05:07:47;100334.60;;;15.20
70533;BMP180;58088;51.186;17.130;2022-10-16T05:10:13;100322.40;;;15.20
70533;BMP180;58088;51.186;17.130;2022-10-16T05:12:40;100325.40;;;15.20
70533;BMP180;58088;51.186;17.130;2022-10-16T05:15:07;100326.40;;;15.28
70533;BMP180;58088;51.186;17.130;2022-10-16T05:17:39;100330.60;;;15.30
70533;BMP180;58088;51.186;17.130;2022-10-16T05:20:07;100329.20;;;15.30
70533;BMP180;58088;51.186;17.130;2022-10-16T05:22:33;100338.40;;;15.30
70533;BMP180;58088;51.186;17.130;2022-10-16T05:24:59;100340.60;;;15.30
70533;BMP180;58088;51.186;17.130;2022-10-16T05:27:25;100333.80;;;15.30
70533;BMP180;58088;51.186;17.130;2022-10-16T05:29:51;100336.20;;;15.36
70533;BMP180;58088;51.186;17.130;2022-10-16T05:32:18;100339.80;;;15.40
70533;BMP180;58088;51.186;17.130;2022-10-16T05:34:45;100342.60;;;15.36
70533;BMP180;58088;51.186;17.130;2022-10-16T05:37:12;100347.40;;;15.40
70533;BMP180;58088;51.186;17.130;2022-10-16T05:39:39;100350.60;;;15.38
70533;BMP180;58088;51.186;17.130;2022-10-16T05:42:06;100348.00;;;15.38
70533;BMP180;58088;51.186;17.130;2022-10-16T05:44:32;100350.60;;;15.40
70533;BMP180;58088;51.186;17.130;2022-10-16T05:46:59;100356.40;;;15.40
70533;BMP180;58088;51.186;17.130;2022-10-16T05:49:25;100347.20;;;15.40
70533;BMP180;58088;51.186;17.130;2022-10-16T05:51:51;100352.20;;;15.40
70533;BMP180;58088;51.186;17.130;2022-10-16T05:54:17;100357.40;;;15.40
70533;BMP180;58088;51.186;17.130;2022-10-16T05:56:43;100353.20;;;15.50
70533;BMP180;58088;51.186;17.130;2022-10-16T05:59:09;100355.40;;;15.50
70533;BMP180;58088;51.186;17.130;2022-10-16T06:01:36;100364.00;;;15.50
70533;BMP180;58088;51.186;17.130;2022-10-16T06:04:02;100362.40;;;15.52
70533;BMP180;58088;51.186;17.130;2022-10-16T06:06:29;100363.20;;;15.58
70533;BMP180;58088;51.186;17.130;2022-10-16T06:08:57;100375.80;;;15.60
70533;BMP180;58088;51.186;17.130;2022-10-16T06:11:27;100378.00;;;15.68
70533;BMP180;58088;51.186;17.130;2022-10-16T06:13:58;100378.60;;;15.70
70533;BMP180;58088;51.186;17.130;2022-10-16T06:16:28;100387.00;;;15.72
70533;BMP180;58088;51.186;17.130;2022-10-16T06:18:56;100386.40;;;15.80
70533;BMP180;58088;51.186;17.130;2022-10-16T06:21:24;100390.20;;;15.86
70533;BMP180;58088;51.186;17.130;2022-10-16T06:23:53;100392.40;;;15.92
70533;BMP180;58088;51.186;17.130;2022-10-16T06:26:25;100392.00;;;16.00
70533;BMP180;58088;51.186;17.130;2022-10-16T06:28:55;100395.60;;;16.00
70533;BMP180;58088;51.186;17.130;2022-10-16T06:31:22;100404.40;;;15.98
70533;BMP180;58088;51.186;17.130;2022-10-16T06:33:55;100406.00;;;15.90
70533;BMP180;58088;51.186;17.130;2022-10-16T06:36:25;100405.20;;;15.92
70533;BMP180;58088;51.186;17.130;2022-10-16T06:38:54;100405.60;;;16.00
70533;BMP180;58088;51.186;17.130;2022-10-16T06:41:24;100400.20;;;16.00
70533;BMP180;58088;51.186;17.130;2022-10-16T06:43:53;100410.40;;;16.04
70533;BMP180;58088;51.186;17.130;2022-10-16T06:46:26;100414.40;;;16.10
70533;BMP180;58088;51.186;17.130;2022-10-16T06:48:56;100407.80;;;16.20
70533;BMP180;58088;51.186;17.130;2022-10-16T06:51:27;100414.20;;;16.26
70533;BMP180;58088;51.186;17.130;2022-10-16T06:53:56;100425.60;;;16.30
70533;BMP180;58088;51.186;17.130;2022-10-16T06:56:27;100423.80;;;16.40
70533;BMP180;58088;51.186;17.130;2022-10-16T06:58:55;100431.00;;;16.40
70533;BMP180;58088;51.186;17.130;2022-10-16T07:01:24;100431.60;;;16.50
70533;BMP180;58088;51.186;17.130;2022-10-16T07:03:52;100432.00;;;16.50
70533;BMP180;58088;51.186;17.130;2022-10-16T07:06:24;100439.20;;;16.60
70533;BMP180;58088;51.186;17.130;2022-10-16T07:08:51;100445.00;;;16.60
70533;BMP180;58088;51.186;17.130;2022-10-16T07:11:21;100447.00;;;16.70
70533;BMP180;58088;51.186;17.130;2022-10-16T07:13:49;100451.80;;;16.70
70533;BMP180;58088;51.186;17.130;2022-10-16T07:16:19;100452.80;;;16.80
70533;BMP180;58088;51.186;17.130;2022-10-16T07:18:46;100453.40;;;16.80
70533;BMP180;58088;51.186;17.130;2022-10-16T07:21:22;100457.80;;;16.82
70533;BMP180;58088;51.186;17.130;2022-10-16T07:23:53;100462.00;;;16.90
70533;BMP180;58088;51.186;17.130;2022-10-16T07:26:20;100461.60;;;16.92
70533;BMP180;58088;51.186;17.130;2022-10-16T07:28:46;100462.40;;;17.00
70533;BMP180;58088;51.186;17.130;2022-10-16T07:31:16;100464.40;;;17.00
70533;BMP180;58088;51.186;17.130;2022-10-16T07:33:45;100460.20;;;17.10
70533;BMP180;58088;51.186;17.130;2022-10-16T07:36:14;100467.20;;;17.20
70533;BMP180;58088;51.186;17.130;2022-10-16T07:38:40;100476.40;;;17.22
70533;BMP180;58088;51.186;17.130;2022-10-16T07:41:12;100468.00;;;17.40
70533;BMP180;58088;51.186;17.130;2022-10-16T07:43:39;100473.20;;;17.50
70533;BMP180;58088;51.186;17.130;2022-10-16T07:46:06;100469.40;;;17.58
70533;BMP180;58088;51.186;17.130;2022-10-16T07:48:34;100466.00;;;17.70
70533;BMP180;58088;51.186;17.130;2022-10-16T07:51:06;100459.80;;;17.90
70533;BMP180;58088;51.186;17.130;2022-10-16T07:53:33;100455.80;;;18.10
70533;BMP180;58088;51.186;17.130;2022-10-16T07:56:05;100462.00;;;18.22
70533;BMP180;58088;51.186;17.130;2022-10-16T07:58:33;100460.00;;;18.40
70533;BMP180;58088;51.186;17.130;2022-10-16T08:01:09;100466.20;;;18.50
70533;BMP180;58088;51.186;17.130;2022-10-16T08:03:36;100464.00;;;18.60
70533;BMP180;58088;51.186;17.130;2022-10-16T08:06:04;100465.80;;;18.68
70533;BMP180;58088;51.186;17.130;2022-10-16T08:08:31;100466.00;;;18.70
70533;BMP180;58088;51.186;17.130;2022-10-16T08:10:57;100466.00;;;18.80
70533;BMP180;58088;51.186;17.130;2022-10-16T08:13:23;100473.00;;;18.90
70533;BMP180;58088;51.186;17.130;2022-10-16T08:15:49;100466.20;;;18.90
70533;BMP180;58088;51.186;17.130;2022-10-16T08:18:16;100478.60;;;19.00
70533;BMP180;58088;51.186;17.130;2022-10-16T08:20:43;100480.80;;;19.02
70533;BMP180;58088;51.186;17.130;2022-10-16T08:23:11;100484.00;;;19.10
70533;BMP180;58088;51.186;17.130;2022-10-16T08:25:40;100489.80;;;19.20
70533;BMP180;58088;51.186;17.130;2022-10-16T08:28:10;100493.40;;;19.30
70533;BMP180;58088;51.186;17.130;2022-10-16T08:30:37;100491.20;;;19.30
70533;BMP180;58088;51.186;17.130;2022-10-16T08:33:04;100485.80;;;19.40
70533;BMP180;58088;51.186;17.130;2022-10-16T08:35:30;100484.60;;;19.40
70533;BMP180;58088;51.186;17.130;2022-10-16T08:37:56;100486.60;;;19.40
70533;BMP180;58088;51.186;17.130;2022-10-16T08:40:27;100491.40;;;19.50
70533;BMP180;58088;51.186;17.130;2022-10-16T08:43:16;100495.60;;;19.60
70533;BMP180;58088;51.186;17.130;2022-10-16T08:46:10;100503.40;;;19.70
70533;BMP180;58088;51.186;17.130;2022-10-16T08:48:50;100512.20;;;19.80
70533;BMP180;58088;51.186;17.130;2022-10-16T08:51:35;100508.40;;;19.90
70533;BMP180;58088;51.186;17.130;2022-10-16T08:54:31;100510.00;;;20.10
70533;BMP180;58088;51.186;17.130;2022-10-16T08:57:27;100512.80;;;20.32
70533;BMP180;58088;51.186;17.130;2022-10-16T08:59:57;100512.40;;;20.60
70533;BMP180;58088;51.186;17.130;2022-10-16T09:02:38;100519.00;;;20.70
70533;BMP180;58088;51.186;17.130;2022-10-16T09:05:42;100519.20;;;20.80
70533;BMP180;58088;51.186;17.130;2022-10-16T09:08:54;100514.00;;;20.90
70533;BMP180;58088;51.186;17.130;2022-10-16T09:22:40;100523.80;;;21.00
70533;BMP180;58088;51.186;17.130;2022-10-16T09:25:21;100526.80;;;21.00
70533;BMP180;58088;51.186;17.130;2022-10-16T09:27:52;100523.00;;;21.00
70533;BMP180;58088;51.186;17.130;2022-10-16T09:30:22;100522.60;;;20.90
70533;BMP180;58088;51.186;17.130;2022-10-16T09:32:52;100526.00;;;20.90
70533;BMP180;58088;51.186;17.130;2022-10-16T09:35:27;100527.80;;;20.90
70533;BMP180;58088;51.186;17.130;2022-10-16T09:37:57;100535.40;;;20.90
70533;BMP180;58088;51.186;17.130;2022-10-16T09:43:46;100533.00;;;20.90
70533;BMP180;58088;51.186;17.130;2022-10-16T09:45:53;100529.00;;;20.90
70533;BMP180;58088;51.186;17.130;2022-10-16T09:48:20;100533.40;;;20.90
70533;BMP180;58088;51.186;17.130;2022-10-16T09:51:00;100536.80;;;20.90
70533;BMP180;58088;51.186;17.130;2022-10-16T09:53:42;100537.80;;;21.00
70533;BMP180;58088;51.186;17.130;2022-10-16T09:56:12;100530.80;;;21.10
70533;BMP180;58088;51.186;17.130;2022-10-16T09:58:55;100526.60;;;21.30
70533;BMP180;58088;51.186;17.130;2022-10-16T10:01:36;100533.20;;;21.42
70533;BMP180;58088;51.186;17.130;2022-10-16T10:04:07;100529.40;;;21.60
70533;BMP180;58088;51.186;17.130;2022-10-16T10:06:41;100534.00;;;21.70
70533;BMP180;58088;51.186;17.130;2022-10-16T10:09:29;100527.80;;;21.90
70533;BMP180;58088;51.186;17.130;2022-10-16T10:11:59;100525.20;;;21.90
70533;BMP180;58088;51.186;17.130;2022-10-16T10:14:35;100522.80;;;22.00
70533;BMP180;58088;51.186;17.130;2022-10-16T10:22:40;100530.20;;;22.20
70533;BMP180;58088;51.186;17.130;2022-10-16T10:31:01;100529.00;;;22.42
70533;BMP180;58088;51.186;17.130;2022-10-16T10:36:37;100533.20;;;22.60
70533;BMP180;58088;51.186;17.130;2022-10-16T10:39:14;100533.40;;;22.70
70533;BMP180;58088;51.186;17.130;2022-10-16T10:47:42;100527.80;;;23.18
70533;BMP180;58088;51.186;17.130;2022-10-16T10:50:24;100527.80;;;23.30
70533;BMP180;58088;51.186;17.130;2022-10-16T11:06:34;100531.40;;;23.76
70533;BMP180;58088;51.186;17.130;2022-10-16T11:11:58;100528.80;;;23.80
70533;BMP180;58088;51.186;17.130;2022-10-16T11:14:55;100527.20;;;23.90
70533;BMP180;58088;51.186;17.130;2022-10-16T11:17:33;100519.60;;;24.00
70533;BMP180;58088;51.186;17.130;2022-10-16T11:20:21;100521.00;;;24.08
70533;BMP180;58088;51.186;17.130;2022-10-16T11:23:09;100516.60;;;24.20
70533;BMP180;58088;51.186;17.130;2022-10-16T11:25:36;100506.20;;;24.20
70533;BMP180;58088;51.186;17.130;2022-10-16T11:28:15;100502.80;;;24.30
70533;BMP180;58088;51.186;17.130;2022-10-16T11:31:04;100503.40;;;24.44
70533;BMP180;58088;51.186;17.130;2022-10-16T11:33:36;100500.00;;;24.60
70533;BMP180;58088;51.186;17.130;2022-10-16T11:37:01;100500.40;;;24.60
70533;BMP180;58088;51.186;17.130;2022-10-16T11:39:21;100500.20;;;24.58
70533;BMP180;58088;51.186;17.130;2022-10-16T11:42:18;100507.80;;;24.60
70533;BMP180;58088;51.186;17.130;2022-10-16T11:45:00;100516.20;;;24.60
70533;BMP180;58088;51.186;17.130;2022-10-16T11:47:43;100509.00;;;24.70
70533;BMP180;58088;51.186;17.130;2022-10-16T11:55:49;100506.80;;;24.60
70533;BMP180;58088;51.186;17.130;2022-10-16T11:58:41;100505.40;;;24.50
70533;BMP180;58088;51.186;17.130;2022-10-16T12:01:44;100501.80;;;24.40
70533;BMP180;58088;51.186;17.130;2022-10-16T12:04:41;100509.00;;;24.30
70533;BMP180;58088;51.186;17.130;2022-10-16T12:07:37;100517.40;;;24.30
70533;BMP180;58088;51.186;17.130;2022-10-16T12:10:24;100526.80;;;24.30
70533;BMP180;58088;51.186;17.130;2022-10-16T12:12:51;100523.80;;;24.20
70533;BMP180;58088;51.186;17.130;2022-10-16T12:15:31;100518.00;;;24.10
70533;BMP180;58088;51.186;17.130;2022-10-16T12:17:58;100522.80;;;24.10
70533;BMP180;58088;51.186;17.130;2022-10-16T12:20:31;100528.60;;;24.00
70533;BMP180;58088;51.186;17.130;2022-10-16T12:23:03;100540.40;;;23.98
70533;BMP180;58088;51.186;17.130;2022-10-16T12:25:36;100542.80;;;23.90
70533;BMP180;58088;51.186;17.130;2022-10-16T12:28:19;100544.80;;;23.90
70533;BMP180;58088;51.186;17.130;2022-10-16T12:30:56;100560.80;;;23.90
70533;BMP180;58088;51.186;17.130;2022-10-16T12:33:30;100558.40;;;23.90
70533;BMP180;58088;51.186;17.130;2022-10-16T12:36:03;100565.00;;;23.82
70533;BMP180;58088;51.186;17.130;2022-10-16T12:38:51;100553.60;;;23.80
70533;BMP180;58088;51.186;17.130;2022-10-16T12:41:34;100556.80;;;23.70
70533;BMP180;58088;51.186;17.130;2022-10-16T12:44:02;100565.00;;;23.68
70533;BMP180;58088;51.186;17.130;2022-10-16T12:51:43;100568.20;;;23.60
70533;BMP180;58088;51.186;17.130;2022-10-16T12:54:37;100568.40;;;23.58
70533;BMP180;58088;51.186;17.130;2022-10-16T13:06:39;100588.40;;;23.60
70533;BMP180;58088;51.186;17.130;2022-10-16T13:15:47;100585.60;;;23.42
70533;BMP180;58088;51.186;17.130;2022-10-16T13:24:02;100585.60;;;23.40
70533;BMP180;58088;51.186;17.130;2022-10-16T13:29:35;100598.20;;;23.38
70533;BMP180;58088;51.186;17.130;2022-10-16T13:32:10;100606.40;;;23.32
70533;BMP180;58088;51.186;17.130;2022-10-16T13:34:48;100607.20;;;23.30
70533;BMP180;58088;51.186;17.130;2022-10-16T13:37:21;100610.40;;;23.30
70533;BMP180;58088;51.186;17.130;2022-10-16T13:39:49;100606.20;;;23.30
70533;BMP180;58088;51.186;17.130;2022-10-16T13:42:27;100605.00;;;23.30
70533;BMP180;58088;51.186;17.130;2022-10-16T13:44:56;100608.40;;;23.20
70533;BMP180;58088;51.186;17.130;2022-10-16T13:47:28;100610.20;;;23.20
70533;BMP180;58088;51.186;17.130;2022-10-16T13:50:19;100607.20;;;23.10
70533;BMP180;58088;51.186;17.130;2022-10-16T13:52:45;100608.40;;;23.10
70533;BMP180;58088;51.186;17.130;2022-10-16T13:55:17;100602.40;;;23.10
70533;BMP180;58088;51.186;17.130;2022-10-16T13:57:45;100603.60;;;23.10
70533;BMP180;58088;51.186;17.130;2022-10-16T14:00:23;100610.00;;;23.10
70533;BMP180;58088;51.186;17.130;2022-10-16T14:03:03;100619.60;;;23.10
70533;BMP180;58088;51.186;17.130;2022-10-16T14:05:30;100624.80;;;23.10
70533;BMP180;58088;51.186;17.130;2022-10-16T14:07:58;100623.80;;;23.10
70533;BMP180;58088;51.186;17.130;2022-10-16T14:10:32;100627.60;;;23.08
70533;BMP180;58088;51.186;17.130;2022-10-16T14:13:06;100638.00;;;23.10
70533;BMP180;58088;51.186;17.130;2022-10-16T14:15:35;100635.20;;;23.10
70533;BMP180;58088;51.186;17.130;2022-10-16T14:18:03;100632.00;;;23.10
70533;BMP180;58088;51.186;17.130;2022-10-16T14:20:33;100639.20;;;23.10
70533;BMP180;58088;51.186;17.130;2022-10-16T14:23:04;100643.60;;;23.08
70533;BMP180;58088;51.186;17.130;2022-10-16T14:25:32;100637.20;;;23.00
70533;BMP180;58088;51.186;17.130;2022-10-16T14:28:20;100633.40;;;23.00
70533;BMP180;58088;51.186;17.130;2022-10-16T14:30:53;100635.00;;;23.00
70533;BMP180;58088;51.186;17.130;2022-10-16T14:36:15;100636.40;;;22.90
70533;BMP180;58088;51.186;17.130;2022-10-16T14:39:06;100632.40;;;22.90
70533;BMP180;58088;51.186;17.130;2022-10-16T14:41:51;100636.00;;;22.80
70533;BMP180;58088;51.186;17.130;2022-10-16T14:44:23;100635.20;;;22.80
70533;BMP180;58088;51.186;17.130;2022-10-16T14:46:52;100637.80;;;22.70
70533;BMP180;58088;51.186;17.130;2022-10-16T14:49:20;100645.60;;;22.70
70533;BMP180;58088;51.186;17.130;2022-10-16T14:51:48;100646.80;;;22.70
70533;BMP180;58088;51.186;17.130;2022-10-16T14:54:17;100645.60;;;22.70
70533;BMP180;58088;51.186;17.130;2022-10-16T14:56:58;100647.20;;;22.70
70533;BMP180;58088;51.186;17.130;2022-10-16T14:59:35;100653.20;;;22.70
70533;BMP180;58088;51.186;17.130;2022-10-16T15:02:31;100657.40;;;22.70
70533;BMP180;58088;51.186;17.130;2022-10-16T15:05:10;100656.40;;;22.60
70533;BMP180;58088;51.186;17.130;2022-10-16T15:07:36;100657.40;;;22.60
70533;BMP180;58088;51.186;17.130;2022-10-16T15:10:03;100658.20;;;22.50
70533;BMP180;58088;51.186;17.130;2022-10-16T15:12:29;100659.60;;;22.50
70533;BMP180;58088;51.186;17.130;2022-10-16T15:14:55;100660.60;;;22.50
70533;BMP180;58088;51.186;17.130;2022-10-16T15:17:21;100659.60;;;22.42
70533;BMP180;58088;51.186;17.130;2022-10-16T15:19:48;100663.60;;;22.40
70533;BMP180;58088;51.186;17.130;2022-10-16T15:22:14;100662.00;;;22.40
70533;BMP180;58088;51.186;17.130;2022-10-16T15:24:40;100666.40;;;22.40
70533;BMP180;58088;51.186;17.130;2022-10-16T15:27:06;100666.60;;;22.34
70533;BMP180;58088;51.186;17.130;2022-10-16T15:29:32;100662.40;;;22.40
70533;BMP180;58088;51.186;17.130;2022-10-16T15:31:58;100665.00;;;22.30
70533;BMP180;58088;51.186;17.130;2022-10-16T15:34:25;100659.00;;;22.30
70533;BMP180;58088;51.186;17.130;2022-10-16T15:36:52;100666.00;;;22.16
70533;BMP180;58088;51.186;17.130;2022-10-16T15:39:19;100664.80;;;22.00
70533;BMP180;58088;51.186;17.130;2022-10-16T15:41:47;100667.80;;;21.98
70533;BMP180;58088;51.186;17.130;2022-10-16T15:44:17;100670.40;;;21.90
70533;BMP180;58088;51.186;17.130;2022-10-16T15:46:43;100665.60;;;21.80
70533;BMP180;58088;51.186;17.130;2022-10-16T15:49:11;100669.40;;;21.80
70533;BMP180;58088;51.186;17.130;2022-10-16T15:51:42;100675.00;;;21.70
70533;BMP180;58088;51.186;17.130;2022-10-16T15:54:09;100679.40;;;21.70
70533;BMP180;58088;51.186;17.130;2022-10-16T15:56:35;100682.80;;;21.62
70533;BMP180;58088;51.186;17.130;2022-10-16T15:59:04;100685.00;;;21.60